createdAt,value
2022-08-10T00:01:53.657Z,17.04
2022-08-10T00:04:22.846Z,17.07
2022-08-10T00:06:52.059Z,17.07
2022-08-10T00:09:18.607Z,17.07
2022-08-10T00:11:45.218Z,17.09
2022-08-10T00:14:11.726Z,17.10
2022-08-10T00:16:38.332Z,17.08
2022-08-10T00:19:04.865Z,17.07
2022-08-10T00:21:31.419Z,17.08
2022-08-10T00:23:57.922Z,17.08
2022-08-10T00:26:24.435Z,17.12
2022-08-10T00:28:50.992Z,17.10
2022-08-10T00:31:17.521Z,17.06
2022-08-10T00:33:44.096Z,17.04
2022-08-10T00:36:10.678Z,17.03
2022-08-10T00:38:37.648Z,17.01
2022-08-10T00:41:04.400Z,17.02
2022-08-10T00:43:30.911Z,16.98
2022-08-10T00:45:59.428Z,16.96
2022-08-10T00:48:28.896Z,16.94
2022-08-10T00:50:55.950Z,16.89
2022-08-10T00:53:22.487Z,16.85
2022-08-10T00:56:34.897Z,16.84
2022-08-10T00:58:38.352Z,16.83
2022-08-10T01:01:06.130Z,16.76
2022-08-10T01:04:40.025Z,16.68
2022-08-10T01:06:55.308Z,16.60
2022-08-10T01:09:40.435Z,16.54
2022-08-10T01:12:40.588Z,16.48
2022-08-10T01:15:19.403Z,16.31
2022-08-10T01:17:57.108Z,16.18
2022-08-10T01:20:51.498Z,16.21
2022-08-10T01:23:36.364Z,16.23
2022-08-10T01:26:31.013Z,16.23
2022-08-10T01:29:26.470Z,16.21
2022-08-10T01:31:57.588Z,16.24
2022-08-10T01:34:37.160Z,16.25
2022-08-10T01:37:08.307Z,16.24
2022-08-10T01:39:42.020Z,16.22
2022-08-10T01:42:13.237Z,16.19
2022-08-10T01:44:46.125Z,16.14
2022-08-10T01:47:34.839Z,16.09
2022-08-10T01:50:09.863Z,16.01
2022-08-10T01:52:40.362Z,16.01
2022-08-10T01:55:08.083Z,16.03
2022-08-10T01:57:37.611Z,16.06
2022-08-10T02:00:05.303Z,16.06
2022-08-10T02:02:34.251Z,16.08
2022-08-10T02:05:03.326Z,16.01
2022-08-10T02:07:32.545Z,16.01
2022-08-10T02:10:03.635Z,15.99
2022-08-10T02:12:33.295Z,15.98
2022-08-10T02:15:04.189Z,15.94
2022-08-10T02:17:57.491Z,15.91
2022-08-10T02:20:26.179Z,15.90
2022-08-10T02:23:01.539Z,15.87
2022-08-10T02:25:41.505Z,15.84
2022-08-10T02:28:11.519Z,15.84
2022-08-10T02:30:39.197Z,15.80
2022-08-10T02:33:09.069Z,15.76
2022-08-10T02:35:54.100Z,15.73
2022-08-10T02:38:58.496Z,15.68
2022-08-10T02:45:12.377Z,15.67
2022-08-10T02:45:27.648Z,15.63
2022-08-10T02:47:52.323Z,15.64
2022-08-10T02:50:29.503Z,15.61
2022-08-10T02:53:02.047Z,15.57
2022-08-10T02:55:46.294Z,15.57
2022-08-10T02:58:22.463Z,15.63
2022-08-10T03:00:54.354Z,15.60
2022-08-10T03:03:31.491Z,15.53
2022-08-10T03:06:05.581Z,15.51
2022-08-10T03:08:36.133Z,15.47
2022-08-10T03:11:04.938Z,15.41
2022-08-10T03:13:33.742Z,15.36
2022-08-10T03:16:02.669Z,15.43
2022-08-10T03:18:32.571Z,15.40
2022-08-10T03:21:00.307Z,15.39
2022-08-10T03:23:28.390Z,15.30
2022-08-10T03:25:56.466Z,15.30
2022-08-10T03:28:26.059Z,15.27
2022-08-10T03:30:53.806Z,15.23
2022-08-10T03:33:22.692Z,15.21
2022-08-10T03:36:43.310Z,15.20
2022-08-10T03:38:37.520Z,15.18
2022-08-10T03:41:06.473Z,15.12
2022-08-10T03:43:34.136Z,15.09
2022-08-10T03:46:06.124Z,15.05
2022-08-10T03:48:49.482Z,15.01
2022-08-10T03:51:18.823Z,14.97
2022-08-10T03:54:06.087Z,15.00
2022-08-10T03:56:33.693Z,15.02
2022-08-10T03:59:01.543Z,15.02
2022-08-10T04:02:42.015Z,14.98
2022-08-10T04:04:22.456Z,14.88
2022-08-10T04:06:54.883Z,14.86
2022-08-10T04:09:29.744Z,14.88
2022-08-10T04:12:13.319Z,14.89
2022-08-10T04:14:49.620Z,14.88
2022-08-10T04:17:18.623Z,14.85
2022-08-10T04:20:07.943Z,14.93
2022-08-10T04:22:36.524Z,14.90
2022-08-10T04:25:05.371Z,14.90
2022-08-10T04:27:32.077Z,14.89
2022-08-10T04:29:58.652Z,14.86
2022-08-10T04:32:26.960Z,14.84
2022-08-10T04:34:55.447Z,14.84
2022-08-10T04:37:23.557Z,14.85
2022-08-10T04:39:50.143Z,14.85
2022-08-10T04:42:17.124Z,14.85
2022-08-10T04:44:43.750Z,14.86
2022-08-10T04:47:10.313Z,14.87
2022-08-10T04:49:54.228Z,14.87
2022-08-10T04:52:22.642Z,14.88
2022-08-10T04:54:51.908Z,14.88
2022-08-10T04:57:18.379Z,14.87
2022-08-10T04:59:44.872Z,14.85
2022-08-10T05:02:30.713Z,14.87
2022-08-10T05:04:58.285Z,14.91
2022-08-10T05:07:24.954Z,14.98
2022-08-10T05:10:02.949Z,14.99
2022-08-10T05:12:35.844Z,15.03
2022-08-10T05:15:03.043Z,15.07
2022-08-10T05:17:29.668Z,15.10
2022-08-10T05:20:03.522Z,15.13
2022-08-10T05:22:34.067Z,15.15
2022-08-10T05:25:00.604Z,15.19
2022-08-10T05:27:27.134Z,15.21
2022-08-10T05:30:01.033Z,15.23
2022-08-10T05:32:29.601Z,15.28
2022-08-10T05:34:56.221Z,15.36
2022-08-10T05:38:10.596Z,15.38
2022-08-10T05:40:10.782Z,15.40
2022-08-10T05:42:38.110Z,15.44
2022-08-10T05:45:05.085Z,15.43
2022-08-10T05:48:57.500Z,15.44
2022-08-10T05:50:23.820Z,15.51
2022-08-10T05:52:50.539Z,15.56
2022-08-10T05:55:17.403Z,15.56
2022-08-10T05:57:46.187Z,15.56
2022-08-10T06:00:35.542Z,15.57
2022-08-10T06:03:07.989Z,15.59
2022-08-10T06:05:38.540Z,15.63
2022-08-10T06:08:19.543Z,15.69
2022-08-10T06:12:16.485Z,15.74
2022-08-10T06:13:59.995Z,15.83
2022-08-10T06:16:41.920Z,15.96
2022-08-10T06:19:10.303Z,16.02
2022-08-10T06:21:38.663Z,16.09
2022-08-10T06:24:25.478Z,16.17
2022-08-10T06:26:57.145Z,16.27
2022-08-10T06:29:25.183Z,16.36
2022-08-10T06:31:53.305Z,16.44
2022-08-10T06:34:25.930Z,16.51
2022-08-10T06:36:55.438Z,16.58
2022-08-10T06:39:34.123Z,16.67
2022-08-10T06:42:17.635Z,16.71
2022-08-10T06:44:58.102Z,16.80
2022-08-10T06:47:47.816Z,16.92
2022-08-10T06:50:44.739Z,16.99
2022-08-10T06:53:53.211Z,17.17
2022-08-10T06:56:38.229Z,17.45
2022-08-10T06:59:24.507Z,17.67
2022-08-10T07:01:57.451Z,17.86
2022-08-10T07:04:55.520Z,18.02
2022-08-10T07:07:27.008Z,18.15
2022-08-10T07:09:56.478Z,18.32
2022-08-10T07:12:25.381Z,18.50
2022-08-10T07:14:53.330Z,18.57
2022-08-10T07:17:22.349Z,18.59
2022-08-10T07:19:52.221Z,18.69
2022-08-10T07:23:08.319Z,18.80
2022-08-10T07:25:12.371Z,18.85
2022-08-10T07:27:59.767Z,18.96
2022-08-10T07:30:30.037Z,19.10
2022-08-10T07:32:58.672Z,19.14
2022-08-10T07:35:28.953Z,19.23
2022-08-10T07:37:59.838Z,19.34
2022-08-10T07:40:31.530Z,19.45
2022-08-10T07:43:00.190Z,19.54
2022-08-10T07:45:30.473Z,19.64
2022-08-10T07:48:07.539Z,19.75
2022-08-10T07:50:37.693Z,19.89
2022-08-10T07:53:06.706Z,19.98
2022-08-10T07:56:05.846Z,20.12
2022-08-10T07:58:27.308Z,20.16
2022-08-10T08:00:54.864Z,20.17
2022-08-10T08:03:28.571Z,20.25
2022-08-10T08:06:05.078Z,20.37
2022-08-10T08:08:40.039Z,20.41
2022-08-10T08:11:08.721Z,20.52
2022-08-10T08:13:37.412Z,20.55
2022-08-10T08:16:21.491Z,20.68
2022-08-10T08:19:09.953Z,20.81
2022-08-10T08:24:07.380Z,20.99
2022-08-10T08:24:33.538Z,21.10
2022-08-10T08:27:02.953Z,21.14
2022-08-10T08:29:35.274Z,21.19
2022-08-10T08:32:04.329Z,21.29
2022-08-10T08:34:33.693Z,21.36
2022-08-10T08:37:01.129Z,21.45
2022-08-10T08:39:28.650Z,21.50
2022-08-10T08:41:58.331Z,21.54
2022-08-10T08:44:57.164Z,21.67
2022-08-10T08:48:04.611Z,21.77
2022-08-10T08:51:03.758Z,21.84
2022-08-10T08:54:02.025Z,21.91
2022-08-10T08:57:00.975Z,22.02
2022-08-10T08:59:33.572Z,22.05
2022-08-10T09:02:39.393Z,22.13
2022-08-10T09:05:28.285Z,22.24
2022-08-10T09:08:19.678Z,22.28
2022-08-10T09:10:46.098Z,22.38
2022-08-10T09:13:40.139Z,22.55
2022-08-10T09:16:09.637Z,22.71
2022-08-10T09:18:52.548Z,22.93
2022-08-10T09:21:43.137Z,23.12
2022-08-10T09:24:34.294Z,23.09
2022-08-10T09:27:09.384Z,23.16
2022-08-10T09:29:45.107Z,23.31
2022-08-10T09:36:15.283Z,23.49
2022-08-10T09:36:24.752Z,23.62
2022-08-10T09:38:18.271Z,23.77
2022-08-10T09:41:05.030Z,23.80
2022-08-10T09:43:54.962Z,23.92
2022-08-10T09:46:42.399Z,24.00
2022-08-10T09:49:17.334Z,24.17
2022-08-10T09:52:00.959Z,24.22
2022-08-10T09:54:59.753Z,24.38
2022-08-10T09:58:00.479Z,24.45
2022-08-10T10:00:38.777Z,24.56
2022-08-10T10:03:27.841Z,24.74
2022-08-10T10:06:03.690Z,24.92
2022-08-10T10:08:38.326Z,25.12
2022-08-10T10:11:35.298Z,25.37
2022-08-10T10:14:23.773Z,25.30
2022-08-10T10:17:05.539Z,25.42
2022-08-10T10:19:55.359Z,25.61
2022-08-10T10:22:47.845Z,25.89
2022-08-10T10:25:49.708Z,26.09
2022-08-10T10:29:37.699Z,26.27
2022-08-10T10:32:08.691Z,26.41
2022-08-10T10:34:51.594Z,26.52
2022-08-10T10:37:21.011Z,26.72
2022-08-10T10:40:09.004Z,26.89
2022-08-10T10:42:49.462Z,27.01
2022-08-10T10:45:22.154Z,27.14
2022-08-10T10:47:54.535Z,27.20
2022-08-10T10:51:10.666Z,27.33
2022-08-10T10:53:59.880Z,27.41
2022-08-10T10:56:50.154Z,27.57
2022-08-10T10:59:55.714Z,27.63
2022-08-10T11:03:01.676Z,27.70
2022-08-10T11:05:31.063Z,27.86
2022-08-10T11:08:03.373Z,27.99
2022-08-10T11:10:43.253Z,28.11
2022-08-10T11:14:26.842Z,28.15
2022-08-10T11:16:28.680Z,28.17
2022-08-10T11:19:10.621Z,28.26
2022-08-10T11:21:50.643Z,28.33
2022-08-10T11:24:47.705Z,28.34
2022-08-10T11:27:33.472Z,28.36
2022-08-10T11:30:13.797Z,28.48
2022-08-10T11:32:49.422Z,28.58
2022-08-10T11:35:53.229Z,28.62
2022-08-10T11:38:51.960Z,28.77
2022-08-10T11:42:10.367Z,28.93
2022-08-10T11:44:59.925Z,28.97
2022-08-10T11:47:32.628Z,29.01
2022-08-10T11:50:17.424Z,29.00
2022-08-10T11:53:11.981Z,29.13
2022-08-10T11:55:38.511Z,29.13
2022-08-10T11:58:27.917Z,29.21
2022-08-10T12:01:02.387Z,29.37
2022-08-10T12:03:34.801Z,29.32
2022-08-10T12:06:04.685Z,29.35
2022-08-10T12:10:03.804Z,29.36
2022-08-10T12:11:26.366Z,29.47
2022-08-10T12:14:27.559Z,29.51
2022-08-10T12:17:22.528Z,29.69
2022-08-10T12:20:04.036Z,29.76
2022-08-10T12:22:56.799Z,29.86
2022-08-10T12:25:56.696Z,29.91
2022-08-10T12:28:49.568Z,29.94
2022-08-10T12:31:12.275Z,30.04
2022-08-10T12:34:19.171Z,29.92
2022-08-10T12:36:50.590Z,29.84
2022-08-10T12:39:25.146Z,29.85
2022-08-10T12:42:12.675Z,30.06
2022-08-10T12:45:12.569Z,30.00
2022-08-10T12:47:59.176Z,30.00
2022-08-10T12:50:49.710Z,30.07
2022-08-10T12:53:48.439Z,30.11
2022-08-10T12:56:27.721Z,30.18
2022-08-10T12:58:58.848Z,30.31
2022-08-10T13:02:06.473Z,30.39
2022-08-10T13:04:24.709Z,30.29
2022-08-10T13:06:52.954Z,30.27
2022-08-10T13:09:25.104Z,30.46
2022-08-10T13:12:35.318Z,30.48
2022-08-10T13:15:43.109Z,30.53
2022-08-10T13:18:18.973Z,30.49
2022-08-10T13:20:52.133Z,30.50
2022-08-10T13:23:24.416Z,30.54
2022-08-10T13:25:52.535Z,30.69
2022-08-10T13:28:36.274Z,30.83
2022-08-10T13:31:16.953Z,30.87
2022-08-10T13:34:40.106Z,30.88
2022-08-10T13:36:46.874Z,30.93
2022-08-10T13:39:17.012Z,31.14
2022-08-10T13:41:46.467Z,31.20
2022-08-10T13:44:17.829Z,31.24
2022-08-10T13:46:53.565Z,31.24
2022-08-10T13:49:21.752Z,31.28
2022-08-10T13:51:54.598Z,31.32
2022-08-10T13:54:36.786Z,31.16
2022-08-10T13:57:04.853Z,31.15
2022-08-10T14:00:34.080Z,31.16
2022-08-10T14:02:34.504Z,31.24
2022-08-10T14:05:02.444Z,31.22
2022-08-10T14:07:31.463Z,31.17
2022-08-10T14:10:07.528Z,31.25
2022-08-10T14:12:43.430Z,31.11
2022-08-10T14:15:14.853Z,31.18
2022-08-10T14:17:45.066Z,31.26
2022-08-10T14:20:16.845Z,31.33
2022-08-10T14:22:46.101Z,31.41
2022-08-10T14:25:15.073Z,31.34
2022-08-10T14:28:02.315Z,31.33
2022-08-10T14:30:32.979Z,31.46
2022-08-10T14:33:04.697Z,31.53
2022-08-10T14:36:18.608Z,31.48
2022-08-10T14:38:31.554Z,31.45
2022-08-10T14:41:01.446Z,31.50
2022-08-10T14:43:54.056Z,31.58
2022-08-10T14:46:22.388Z,31.56
2022-08-10T14:48:52.316Z,31.45
2022-08-10T14:51:25.948Z,31.54
2022-08-10T14:53:55.997Z,31.43
2022-08-10T14:56:33.055Z,31.48
2022-08-10T14:59:06.883Z,31.49
2022-08-10T15:02:00.401Z,31.48
2022-08-10T15:04:28.406Z,31.54
2022-08-10T15:07:00.139Z,31.58
2022-08-10T15:09:59.870Z,31.60
2022-08-10T15:12:27.246Z,31.52
2022-08-10T15:15:00.716Z,31.54
2022-08-10T15:17:34.976Z,31.54
2022-08-10T15:20:15.955Z,31.54
2022-08-10T15:23:31.207Z,31.44
2022-08-10T15:26:08.465Z,31.38
2022-08-10T15:29:24.198Z,31.34
2022-08-10T15:31:33.319Z,31.35
2022-08-10T15:34:23.482Z,31.34
2022-08-10T15:37:39.423Z,31.17
2022-08-10T15:40:24.115Z,31.16
2022-08-10T15:43:24.549Z,31.17
2022-08-10T15:45:58.185Z,31.12
2022-08-10T15:48:29.222Z,31.11
2022-08-10T15:51:05.781Z,30.98
2022-08-10T15:53:49.087Z,30.93
2022-08-10T15:56:31.953Z,30.87
2022-08-10T15:59:10.987Z,30.79
2022-08-10T16:02:14.205Z,30.73
2022-08-10T16:04:52.707Z,30.64
2022-08-10T16:07:45.417Z,30.59
2022-08-10T16:10:25.921Z,30.54
2022-08-10T16:13:51.015Z,30.51
2022-08-10T16:15:59.311Z,30.49
2022-08-10T16:18:28.468Z,30.45
2022-08-10T16:20:58.623Z,30.43
2022-08-10T16:23:34.225Z,30.46
2022-08-10T16:26:14.581Z,30.42
2022-08-10T16:28:46.546Z,30.37
2022-08-10T16:31:19.302Z,30.32
2022-08-10T16:33:52.726Z,30.29
2022-08-10T16:36:22.077Z,30.25
2022-08-10T16:38:51.788Z,30.21
2022-08-10T16:42:04.477Z,30.18
2022-08-10T16:44:07.418Z,30.17
2022-08-10T16:46:34.640Z,30.07
2022-08-10T16:49:02.560Z,30.03
2022-08-10T16:51:30.386Z,29.99
2022-08-10T16:54:01.372Z,29.95
2022-08-10T16:56:32.594Z,29.91
2022-08-10T16:59:02.544Z,29.89
2022-08-10T17:01:36.086Z,29.83
2022-08-10T17:04:09.645Z,29.81
2022-08-10T17:06:40.841Z,29.75
2022-08-10T17:09:15.940Z,29.68
2022-08-10T17:11:47.171Z,29.59
2022-08-10T17:14:14.030Z,29.59
2022-08-10T17:16:50.910Z,29.52
2022-08-10T17:19:24.663Z,29.50
2022-08-10T17:21:55.671Z,29.37
2022-08-10T17:24:47.374Z,29.28
2022-08-10T17:28:04.627Z,29.23
2022-08-10T17:30:11.028Z,29.19
2022-08-10T17:32:57.175Z,29.13
2022-08-10T17:35:27.697Z,29.07
2022-08-10T17:37:58.177Z,29.02
2022-08-10T17:40:27.530Z,28.96
2022-08-10T17:42:55.707Z,28.92
2022-08-10T17:45:46.119Z,28.88
2022-08-10T17:48:11.542Z,28.80
2022-08-10T17:50:42.028Z,28.74
2022-08-10T17:53:16.707Z,28.69
2022-08-10T17:55:49.082Z,28.63
2022-08-10T17:58:19.997Z,28.57
2022-08-10T18:00:51.614Z,28.48
2022-08-10T18:03:26.104Z,28.39
2022-08-10T18:05:56.660Z,28.28
2022-08-10T18:08:31.706Z,28.24
2022-08-10T18:11:02.769Z,28.22
2022-08-10T18:13:55.209Z,28.15
2022-08-10T18:16:25.041Z,28.05
2022-08-10T18:18:58.354Z,27.92
2022-08-10T18:21:30.720Z,27.80
2022-08-10T18:24:06.571Z,27.66
2022-08-10T18:26:38.270Z,27.46
2022-08-10T18:29:12.600Z,27.30
2022-08-10T18:31:41.862Z,27.15
2022-08-10T18:34:13.142Z,26.98
2022-08-10T18:36:42.832Z,26.87
2022-08-10T18:39:12.883Z,26.76
2022-08-10T18:42:00.470Z,26.71
2022-08-10T18:44:42.897Z,26.59
2022-08-10T18:47:15.033Z,26.44
2022-08-10T18:49:53.612Z,26.38
2022-08-10T18:52:23.197Z,26.34
2022-08-10T18:54:53.870Z,26.23
2022-08-10T18:57:40.910Z,26.07
2022-08-10T19:00:19.161Z,25.89
2022-08-10T19:03:04.323Z,25.75
2022-08-10T19:05:40.424Z,25.64
2022-08-10T19:08:42.631Z,25.55
2022-08-10T19:11:53.632Z,25.41
2022-08-10T19:14:30.679Z,25.29
2022-08-10T19:17:07.274Z,25.23
2022-08-10T19:20:04.302Z,25.16
2022-08-10T19:22:48.835Z,25.02
2022-08-10T19:26:32.875Z,24.91
2022-08-10T19:28:47.369Z,24.85
2022-08-10T19:31:41.913Z,24.71
2022-08-10T19:34:20.261Z,24.61
2022-08-10T19:37:17.333Z,24.54
2022-08-10T19:40:09.827Z,24.48
2022-08-10T19:42:53.227Z,24.50
2022-08-10T19:46:02.917Z,24.41
2022-08-10T19:48:59.985Z,24.42
2022-08-10T19:51:32.839Z,24.43
2022-08-10T19:54:18.214Z,24.39
2022-08-10T19:57:14.414Z,24.38
2022-08-10T20:00:17.451Z,24.24
2022-08-10T20:02:52.917Z,23.98
2022-08-10T20:05:31.394Z,23.79
2022-08-10T20:08:09.858Z,23.68
2022-08-10T20:10:42.591Z,23.65
2022-08-10T20:13:20.684Z,23.67
2022-08-10T20:16:07.021Z,23.71
2022-08-10T20:18:40.370Z,23.76
2022-08-10T20:21:21.303Z,23.75
2022-08-10T20:23:55.448Z,23.73
2022-08-10T20:26:30.120Z,23.67
2022-08-10T20:29:16.319Z,23.61
2022-08-10T20:32:21.321Z,23.58
2022-08-10T20:34:49.989Z,23.54
2022-08-10T20:38:04.021Z,23.47
2022-08-10T20:40:25.523Z,23.41
2022-08-10T20:43:09.439Z,23.35
2022-08-10T20:46:19.721Z,23.27
2022-08-10T20:48:55.156Z,23.20
2022-08-10T20:51:59.225Z,23.16
2022-08-10T20:54:15.254Z,23.10
2022-08-10T20:56:59.771Z,23.04
2022-08-10T20:59:33.663Z,22.97
2022-08-10T21:02:34.223Z,22.93
2022-08-10T21:05:23.042Z,22.83
2022-08-10T21:08:08.746Z,22.76
2022-08-10T21:11:10.766Z,22.72
2022-08-10T21:13:54.270Z,22.67
2022-08-10T21:16:49.475Z,22.62
2022-08-10T21:19:42.966Z,22.55
2022-08-10T21:22:28.985Z,22.49
2022-08-10T21:25:06.385Z,22.41
2022-08-10T21:28:09.881Z,22.34
2022-08-10T21:31:10.538Z,22.31
2022-08-10T21:33:46.183Z,22.26
2022-08-10T21:36:32.297Z,22.19
2022-08-10T21:39:18.039Z,22.11
2022-08-10T21:42:33.124Z,22.07
2022-08-10T21:45:59.161Z,22.02
2022-08-10T21:48:57.065Z,21.96
2022-08-10T21:52:02.225Z,21.90
2022-08-10T21:55:24.527Z,21.84
2022-08-10T21:58:38.562Z,21.79
2022-08-10T22:01:39.223Z,21.75
2022-08-10T22:04:25.931Z,21.67
2022-08-10T22:07:13.502Z,21.59
2022-08-10T22:10:03.929Z,21.49
2022-08-10T22:12:56.743Z,21.38
2022-08-10T22:16:10.769Z,21.38
2022-08-10T22:19:02.875Z,21.38
2022-08-10T22:22:07.600Z,21.33
2022-08-10T22:26:00.272Z,21.25
2022-08-10T22:28:48.736Z,21.20
2022-08-10T22:32:05.013Z,21.16
2022-08-10T22:35:08.358Z,21.12
2022-08-10T22:37:53.575Z,21.06
2022-08-10T22:40:42.300Z,21.03
2022-08-10T22:43:38.025Z,20.97
2022-08-10T22:46:32.671Z,20.91
2022-08-10T22:48:59.378Z,20.86
2022-08-10T22:51:50.373Z,20.82
2022-08-10T22:54:52.237Z,20.76
2022-08-10T22:57:38.279Z,20.65
2022-08-10T23:00:19.992Z,20.50
2022-08-10T23:03:04.910Z,20.38
2022-08-10T23:05:35.897Z,20.23
2022-08-10T23:08:29.681Z,20.10
2022-08-10T23:11:02.995Z,20.00
2022-08-10T23:13:36.042Z,19.92
2022-08-10T23:16:33.446Z,19.86
2022-08-10T23:19:11.369Z,19.78
2022-08-10T23:22:05.826Z,19.72
2022-08-10T23:24:38.107Z,19.70
2022-08-10T23:27:09.090Z,19.64
2022-08-10T23:29:42.553Z,19.58
2022-08-10T23:32:31.036Z,19.55
2022-08-10T23:36:05.613Z,19.56
2022-08-10T23:37:49.004Z,19.55
2022-08-10T23:40:18.197Z,19.58
2022-08-10T23:42:48.741Z,19.61
2022-08-10T23:45:20.147Z,19.65
2022-08-10T23:47:51.236Z,19.65
2022-08-10T23:50:20.175Z,19.67
2022-08-10T23:52:52.731Z,19.62
2022-08-10T23:55:23.476Z,19.61
2022-08-10T23:58:01.964Z,19.66
